Time;durP1;ratioP1;P1;durP2;ratioP2;P2;SDS_P1;SDS_P2;PMS_P1;PMS_P2;Temp;Humidity;BMP_temperature;BMP_pressure;BME280_temperature;BME280_humidity;BME280_pressure;Samples;Min_cycle;Max_cycle;Signal;HPM_P1;HPM_P2
2022/11/14 05:45:24;;;;;;;25.42;12.57;;;15.80;68.70;;;;;;5135757;24;20066;-75
2022/11/14 05:47:53;;;;;;;17.27;10.43;;;15.80;68.10;;;;;;4826970;29;20058;-75
2022/11/14 05:50:18;;;;;;;20.20;9.45;;;15.90;68.80;;;;;;4825097;29;20434;-79
2022/11/14 05:52:44;;;;;;;23.17;10.75;;;16.00;68.80;;;;;;4824281;29;20141;-75
2022/11/14 05:55:10;;;;;;;35.38;10.73;;;16.00;68.80;;;;;;4825910;29;20195;-75
2022/11/14 05:57:35;;;;;;;20.98;11.38;;;16.00;68.60;;;;;;4810487;29;20434;-78
2022/11/14 06:00:03;;;;;;;23.45;11.38;;;16.00;68.40;;;;;;4825936;29;20078;-77
2022/11/14 06:02:29;;;;;;;26.02;12.20;;;16.00;69.00;;;;;;4826196;29;20090;-79
2022/11/14 06:04:55;;;;;;;25.13;11.40;;;16.00;69.30;;;;;;4826289;29;20085;-78
2022/11/14 06:07:23;;;;;;;23.55;11.90;;;16.00;69.50;;;;;;4826277;29;20046;-77
2022/11/14 06:09:49;;;;;;;25.17;13.30;;;16.00;69.70;;;;;;4809985;29;20059;-77
2022/11/14 06:12:15;;;;;;;22.65;11.35;;;15.90;68.70;;;;;;4825087;29;20063;-78
2022/11/14 06:14:40;;;;;;;28.70;11.52;;;15.90;70.00;;;;;;4809491;29;20064;-79
2022/11/14 06:17:06;;;;;;;27.25;11.20;;;15.90;70.20;;;;;;4826126;29;20050;-79
2022/11/14 06:19:32;;;;;;;25.63;11.40;;;15.90;70.40;;;;;;4825762;29;20113;-77
2022/11/14 06:21:57;;;;;;;27.33;13.23;;;15.90;70.30;;;;;;4824743;29;20046;-79
2022/11/14 06:24:23;;;;;;;25.33;12.10;;;15.70;65.20;;;;;;4839327;29;20054;-80
2022/11/14 06:26:49;;;;;;;28.10;13.07;;;15.70;70.10;;;;;;4829537;29;20042;-78
2022/11/14 06:29:14;;;;;;;25.27;12.00;;;15.70;70.70;;;;;;4838170;29;20462;-74
2022/11/14 06:31:40;;;;;;;22.55;15.25;;;15.70;71.00;;;;;;4828997;29;20132;-74
2022/11/14 06:34:06;;;;;;;27.48;17.48;;;15.70;70.50;;;;;;4834467;29;20435;-74
2022/11/14 06:36:31;;;;;;;33.85;20.27;;;15.70;69.50;;;;;;4835116;29;20058;-74
2022/11/14 06:38:57;;;;;;;33.85;24.55;;;15.70;68.70;;;;;;4828933;29;20386;-78
2022/11/14 06:41:23;;;;;;;34.47;21.92;;;15.60;66.10;;;;;;4829027;29;20084;-75
2022/11/14 06:43:51;;;;;;;33.90;23.42;;;15.50;65.80;;;;;;4846116;29;20133;-75
2022/11/14 06:46:19;;;;;;;35.35;22.17;;;15.40;65.20;;;;;;4815509;29;20466;-73
2022/11/14 06:48:46;;;;;;;36.40;22.73;;;15.30;65.40;;;;;;4847196;29;20121;-77
2022/11/14 06:51:12;;;;;;;42.00;22.42;;;15.20;65.70;;;;;;4834365;29;20125;-76
2022/11/14 06:53:39;;;;;;;44.80;22.73;;;15.20;66.10;;;;;;4828981;29;20106;-76
2022/11/14 06:56:11;;;;;;;41.17;23.10;;;15.20;66.50;;;;;;4829337;29;20133;-77
2022/11/14 06:58:40;;;;;;;33.45;21.33;;;15.10;67.10;;;;;;4828679;29;20093;-76
2022/11/14 07:01:09;;;;;;;50.15;21.58;;;15.10;67.40;;;;;;4828402;29;20054;-77
2022/11/14 07:03:35;;;;;;;45.50;21.63;;;15.10;68.00;;;;;;4845097;29;20046;-76
2022/11/14 07:06:02;;;;;;;42.60;21.63;;;15.10;68.40;;;;;;4831321;29;20050;-74
2022/11/14 07:08:28;;;;;;;42.03;19.20;;;15.00;69.00;;;;;;4846853;29;20411;-77
2022/11/14 07:10:53;;;;;;;44.88;19.45;;;15.00;69.30;;;;;;4846765;29;20140;-77
2022/11/14 07:13:19;;;;;;;29.08;18.50;;;15.00;69.20;;;;;;4829019;29;20102;-78
2022/11/14 07:15:52;;;;;;;38.28;18.90;;;14.90;69.10;;;;;;4829039;29;20122;-77
2022/11/14 07:18:18;;;;;;;29.08;17.60;;;14.90;69.10;;;;;;4828296;29;20050;-77
2022/11/14 07:20:44;;;;;;;29.15;18.95;;;14.90;69.20;;;;;;4828634;29;20529;-76
2022/11/14 07:23:10;;;;;;;31.65;19.10;;;14.80;69.10;;;;;;4812147;29;20141;-77
2022/11/14 07:25:35;;;;;;;32.25;19.00;;;14.80;69.20;;;;;;4828170;29;20138;-76
2022/11/14 07:28:01;;;;;;;31.40;19.10;;;14.80;69.20;;;;;;4834200;29;20058;-77
2022/11/14 07:30:27;;;;;;;28.42;17.92;;;14.70;69.20;;;;;;4846653;29;20331;-78
2022/11/14 07:32:56;;;;;;;35.63;18.02;;;14.80;69.40;;;;;;4846353;29;20068;-78
2022/11/14 07:35:22;;;;;;;30.67;16.95;;;14.70;69.10;;;;;;4846374;29;20132;-78
2022/11/14 07:37:49;;;;;;;25.65;17.08;;;14.70;69.40;;;;;;4845861;29;20133;-75
2022/11/14 07:40:15;;;;;;;29.00;15.60;;;14.70;69.40;;;;;;4846546;29;20354;-76
2022/11/14 07:42:41;;;;;;;23.48;16.45;;;14.60;69.40;;;;;;4846565;29;20053;-76
2022/11/14 07:45:08;;;;;;;26.20;15.65;;;14.60;69.50;;;;;;4844902;29;20058;-76
2022/11/14 07:47:33;;;;;;;22.98;16.27;;;14.60;69.50;;;;;;4824829;29;20058;-77
2022/11/14 07:50:01;;;;;;;27.42;15.75;;;14.60;69.60;;;;;;4827776;29;20389;-78
2022/11/14 07:52:27;;;;;;;25.65;15.65;;;14.60;69.60;;;;;;4827472;29;20072;-79
2022/11/14 07:54:52;;;;;;;25.52;15.43;;;14.50;69.60;;;;;;4811456;29;20548;-76
2022/11/14 07:57:18;;;;;;;24.02;15.35;;;14.50;69.70;;;;;;4827681;29;20054;-77
2022/11/14 07:59:44;;;;;;;20.60;15.07;;;14.50;69.70;;;;;;4827457;29;20062;-76
2022/11/14 08:02:13;;;;;;;25.42;15.00;;;14.50;69.80;;;;;;4837633;29;20049;-76
2022/11/14 08:04:40;;;;;;;18.15;14.98;;;14.50;69.80;;;;;;4843832;29;20534;-75
2022/11/14 08:07:06;;;;;;;22.67;14.63;;;14.50;69.80;;;;;;4829392;29;20050;-76
2022/11/14 08:09:32;;;;;;;19.30;14.90;;;14.50;69.90;;;;;;4827758;29;20051;-77
2022/11/14 08:11:58;;;;;;;22.20;15.10;;;14.50;70.00;;;;;;4811641;29;20066;-77
2022/11/14 08:14:24;;;;;;;23.02;14.00;;;14.50;70.00;;;;;;4809026;29;20064;-77
2022/11/14 08:16:50;;;;;;;20.73;15.25;;;14.50;70.10;;;;;;4829663;29;20073;-76
2022/11/14 08:19:16;;;;;;;18.35;13.82;;;14.50;70.20;;;;;;4829633;29;20140;-78
2022/11/14 08:21:43;;;;;;;24.58;15.10;;;14.50;70.30;;;;;;4845737;29;20542;-74
2022/11/14 08:24:09;;;;;;;17.67;13.55;;;14.50;70.30;;;;;;4845393;29;20038;-77
2022/11/14 08:26:35;;;;;;;15.73;12.32;;;14.50;70.20;;;;;;4829627;29;20050;-79
2022/11/14 08:29:01;;;;;;;14.55;10.32;;;14.50;70.00;;;;;;4840292;29;20046;-79
2022/11/14 08:31:27;;;;;;;18.33;9.63;;;14.60;70.00;;;;;;4810978;29;20051;-78
2022/11/14 08:33:53;;;;;;;12.30;8.00;;;14.80;69.90;;;;;;4811240;29;20066;-76
2022/11/14 08:36:18;;;;;;;12.07;7.97;;;15.00;69.70;;;;;;4827156;29;20053;-79
2022/11/14 08:38:44;;;;;;;10.27;8.15;;;15.10;69.50;;;;;;4827093;29;20054;-78
2022/11/14 08:41:10;;;;;;;13.55;7.90;;;15.20;69.40;;;;;;4827013;29;20054;-78
2022/11/14 08:43:35;;;;;;;15.18;7.40;;;15.30;69.40;;;;;;4810992;29;20054;-77
2022/11/14 08:46:03;;;;;;;15.23;7.70;;;15.40;69.30;;;;;;4827165;29;20093;-79
2022/11/14 08:48:30;;;;;;;13.18;7.75;;;15.40;69.20;;;;;;4843573;29;20114;-77
2022/11/14 08:50:56;;;;;;;15.88;6.40;;;15.50;69.20;;;;;;4845018;29;20065;-79
2022/11/14 08:53:23;;;;;;;10.65;6.43;;;15.50;69.20;;;;;;4845013;29;20110;-79
2022/11/14 08:55:48;;;;;;;12.88;6.45;;;15.60;69.20;;;;;;4844636;29;20089;-79
2022/11/14 08:58:15;;;;;;;13.52;6.78;;;15.60;69.30;;;;;;4828768;29;20077;-75
2022/11/14 09:00:44;;;;;;;15.13;7.55;;;15.60;69.40;;;;;;4844664;29;20046;-78
2022/11/14 09:03:14;;;;;;;20.08;10.93;;;15.70;69.20;;;;;;4844704;29;20477;-77
2022/11/14 09:05:41;;;;;;;16.00;8.52;;;15.70;68.70;;;;;;4844873;29;20050;-76
2022/11/14 09:08:07;;;;;;;15.00;7.88;;;15.80;68.50;;;;;;4829719;29;20062;-77
2022/11/14 09:10:33;;;;;;;14.05;7.63;;;15.90;68.30;;;;;;4826254;29;20054;-78
2022/11/14 09:13:01;;;;;;;18.50;8.07;;;16.00;68.30;;;;;;4826057;29;20090;-78
2022/11/14 09:15:29;;;;;;;12.20;8.00;;;16.20;68.30;;;;;;4825755;29;20051;-79
2022/11/14 09:17:56;;;;;;;13.45;7.38;;;16.30;68.10;;;;;;4810649;29;20089;-77
2022/11/14 09:20:23;;;;;;;9.25;6.22;;;16.30;68.00;;;;;;4811055;29;20054;-77
2022/11/14 09:22:52;;;;;;;10.07;5.97;;;16.30;67.90;;;;;;4826016;29;20439;-80
2022/11/14 09:25:19;;;;;;;9.77;6.82;;;16.40;68.00;;;;;;4825694;29;20050;-82
2022/11/14 09:27:45;;;;;;;10.05;6.82;;;16.50;67.90;;;;;;4826014;29;20465;-80
2022/11/14 09:30:12;;;;;;;9.85;6.20;;;16.60;67.80;;;;;;4840472;29;20078;-77
2022/11/14 09:32:37;;;;;;;11.52;6.68;;;16.60;67.80;;;;;;4844431;29;20445;-78
2022/11/14 09:35:03;;;;;;;11.95;6.10;;;16.40;68.00;;;;;;4828494;29;20064;-79
2022/11/14 09:37:29;;;;;;;11.27;6.75;;;16.40;68.20;;;;;;4844363;29;20049;-80
2022/11/14 09:39:55;;;;;;;12.68;6.35;;;16.40;68.30;;;;;;4832499;29;20125;-80
2022/11/14 09:42:57;;;;;;;9.82;5.80;;;16.50;68.90;;;;;;4809897;29;20091;-78
2022/11/14 09:45:24;;;;;;;11.35;6.53;;;16.50;68.30;;;;;;4826358;29;20530;-77
2022/11/14 09:47:54;;;;;;;13.35;6.72;;;16.40;68.30;;;;;;4826314;29;20054;-78
2022/11/14 09:50:27;;;;;;;12.80;6.60;;;16.40;68.40;;;;;;4825037;29;20131;-75
2022/11/14 09:52:56;;;;;;;12.82;7.43;;;16.40;68.50;;;;;;4825778;29;20129;-76
2022/11/14 09:55:28;;;;;;;10.52;6.32;;;16.40;68.60;;;;;;4826154;29;20043;-76
2022/11/14 09:57:55;;;;;;;8.55;5.95;;;16.40;68.60;;;;;;4840083;29;20089;-78
2022/11/14 10:00:22;;;;;;;13.23;6.38;;;16.40;68.60;;;;;;4827714;29;20062;-79
2022/11/14 10:03:13;;;;;;;9.18;6.32;;;16.30;68.50;;;;;;4831836;29;20062;-80
2022/11/14 10:06:08;;;;;;;14.10;6.38;;;16.30;68.70;;;;;;4829456;29;20064;-73
2022/11/14 10:08:43;;;;;;;;;;;16.30;68.90;;;;;;4830017;29;20058;-74
2022/11/14 10:11:14;;;;;;;15.52;7.60;;;16.20;69.00;;;;;;4828677;29;19932;-73
2022/11/14 10:14:17;;;;;;;10.90;7.47;;;16.20;69.10;;;;;;4829092;29;20042;-75
2022/11/14 10:17:08;;;;;;;13.30;7.60;;;16.10;68.90;;;;;;4829253;29;20079;-75
2022/11/14 10:19:45;;;;;;;12.73;8.18;;;16.10;68.80;;;;;;4829053;29;20054;-74
2022/11/14 10:22:41;;;;;;;20.55;8.68;;;16.00;68.90;;;;;;4829321;29;20069;-75
2022/11/14 10:25:26;;;;;;;13.70;8.52;;;15.90;68.80;;;;;;4844591;29;20136;-75
2022/11/14 10:28:07;;;;;;;13.65;8.13;;;15.90;68.80;;;;;;4847538;29;20046;-75
2022/11/14 10:31:04;;;;;;;15.73;8.65;;;15.90;69.00;;;;;;4847489;29;20061;-74
2022/11/14 10:33:51;;;;;;;14.98;8.10;;;15.80;68.90;;;;;;4847175;29;20433;-73
2022/11/14 10:37:07;;;;;;;14.07;8.38;;;15.80;69.00;;;;;;4847283;29;20050;-74
2022/11/14 10:39:38;;;;;;;14.02;8.40;;;15.70;68.90;;;;;;4839925;29;20442;-78
2022/11/14 10:42:13;;;;;;;12.52;9.40;;;15.70;69.70;;;;;;4830978;29;20066;-78
2022/11/14 10:44:49;;;;;;;16.20;11.13;;;15.70;69.10;;;;;;4847124;29;20046;-73
2022/11/14 10:47:20;;;;;;;17.95;14.82;;;15.70;68.70;;;;;;4846305;29;20076;-76
2022/11/14 10:49:50;;;;;;;20.90;16.13;;;15.70;67.90;;;;;;4846906;29;20107;-75
2022/11/14 10:52:20;;;;;;;18.90;15.10;;;15.60;67.60;;;;;;4840860;29;20042;-74
2022/11/14 10:54:58;;;;;;;19.92;14.77;;;15.60;67.30;;;;;;4828609;29;20053;-72
2022/11/14 10:57:27;;;;;;;19.92;14.65;;;15.50;67.10;;;;;;4828439;29;20057;-74
2022/11/14 10:59:54;;;;;;;19.40;14.48;;;15.50;67.30;;;;;;4828728;29;20061;-73
2022/11/14 11:02:20;;;;;;;20.38;14.55;;;15.50;67.50;;;;;;4843228;29;20370;-74
2022/11/14 11:04:45;;;;;;;19.25;13.02;;;15.40;67.40;;;;;;4829247;29;20046;-74
2022/11/14 11:11:28;;;;;;;14.52;10.35;;;15.30;67.70;;;;;;4828826;29;20050;-74
2022/11/14 11:12:51;;;;;;;15.10;11.75;;;14.80;69.10;;;;;;4845733;29;20058;-73
2022/11/14 11:15:30;;;;;;;15.43;10.60;;;14.60;69.70;;;;;;4846854;29;20052;-74
2022/11/14 11:18:00;;;;;;;17.35;11.48;;;14.50;70.20;;;;;;4845451;29;20058;-73
2022/11/14 11:20:28;;;;;;;18.10;12.05;;;14.40;70.80;;;;;;4845017;29;20081;-81
2022/11/14 11:23:13;;;;;;;14.85;11.60;;;14.40;70.80;;;;;;4815186;29;20537;-80
2022/11/14 11:25:39;;;;;;;15.82;12.02;;;14.40;71.00;;;;;;4815435;29;20357;-77
2022/11/14 11:28:15;;;;;;;18.23;12.57;;;14.30;71.20;;;;;;4846673;29;20137;-76
2022/11/14 11:30:59;;;;;;;17.25;13.25;;;14.30;71.40;;;;;;4846294;29;20057;-72
2022/11/14 11:33:30;;;;;;;20.15;15.02;;;14.30;71.20;;;;;;4845306;29;20045;-73
2022/11/14 11:36:00;;;;;;;23.88;16.42;;;14.30;71.00;;;;;;4828252;29;20054;-77
2022/11/14 11:38:29;;;;;;;26.60;16.92;;;14.40;70.70;;;;;;4828183;29;20054;-78
2022/11/14 11:41:17;;;;;;;23.95;16.17;;;14.50;70.20;;;;;;4827923;29;20446;-79
2022/11/14 11:43:59;;;;;;;25.80;16.83;;;14.60;69.50;;;;;;4828090;29;20054;-77
2022/11/14 11:46:48;;;;;;;24.75;16.33;;;14.60;69.00;;;;;;4827813;29;20452;-79
2022/11/14 11:49:16;;;;;;;21.20;15.75;;;14.70;68.80;;;;;;4828017;29;20138;-78
2022/11/14 11:51:44;;;;;;;21.83;15.80;;;14.80;68.70;;;;;;4824560;29;20050;-79
2022/11/14 11:54:19;;;;;;;30.23;19.52;;;14.80;68.70;;;;;;4824036;29;20431;-79
2022/11/14 11:56:51;;;;;;;23.90;17.65;;;14.80;68.30;;;;;;4827961;29;20054;-77
2022/11/14 11:59:25;;;;;;;24.50;16.98;;;14.80;68.10;;;;;;4825550;29;20184;-78
2022/11/14 12:01:51;;;;;;;25.77;15.77;;;14.90;67.70;;;;;;4841500;29;20118;-79
2022/11/14 12:04:17;;;;;;;22.17;15.07;;;15.00;67.40;;;;;;4811417;29;20125;-79
2022/11/14 12:07:06;;;;;;;22.80;15.48;;;15.20;67.30;;;;;;4827775;29;20139;-78
2022/11/14 12:09:39;;;;;;;19.42;14.38;;;15.40;67.10;;;;;;4827129;29;20047;-80
2022/11/14 12:12:43;;;;;;;18.90;13.35;;;15.60;67.00;;;;;;4827017;29;20042;-79
2022/11/14 12:15:39;;;;;;;20.42;13.68;;;15.80;66.80;;;;;;4827416;29;20057;-80
2022/11/14 12:18:42;;;;;;;23.00;12.95;;;15.90;66.70;;;;;;4827699;29;20114;-80
2022/11/14 12:21:18;;;;;;;19.83;12.88;;;16.00;67.00;;;;;;4796649;29;20046;-78
2022/11/14 12:23:55;;;;;;;21.42;11.98;;;16.00;67.20;;;;;;4810269;29;20580;-79
2022/11/14 12:26:40;;;;;;;18.45;10.98;;;16.00;67.30;;;;;;4817911;29;20050;-79
2022/11/14 12:29:27;;;;;;;16.65;11.07;;;16.00;67.50;;;;;;4845505;29;20038;-78
2022/11/14 12:32:01;;;;;;;15.13;10.25;;;16.00;67.80;;;;;;4845431;29;20136;-80
2022/11/14 12:34:30;;;;;;;14.55;10.13;;;16.00;67.80;;;;;;4811834;29;20058;-81
2022/11/14 12:36:56;;;;;;;13.15;9.35;;;15.90;68.00;;;;;;4810894;29;20058;-81
2022/11/14 12:39:30;;;;;;;17.27;9.00;;;15.90;68.20;;;;;;4811103;29;20099;-82
2022/11/14 12:42:05;;;;;;;15.05;9.32;;;15.90;68.50;;;;;;4795935;29;20038;-82
2022/11/14 12:44:32;;;;;;;12.68;8.20;;;15.80;68.70;;;;;;4810937;29;20046;-83
2022/11/14 12:47:04;;;;;;;14.82;8.48;;;15.80;68.70;;;;;;4825500;29;20054;-82
2022/11/14 12:49:52;;;;;;;15.15;8.55;;;15.80;68.80;;;;;;4809753;29;20069;-82
2022/11/14 12:52:39;;;;;;;15.10;8.32;;;15.80;68.90;;;;;;4829265;29;20078;-81
2022/11/14 12:55:25;;;;;;;16.38;8.57;;;15.80;69.10;;;;;;4822873;29;20055;-82
2022/11/14 12:58:09;;;;;;;13.02;8.07;;;15.70;69.40;;;;;;4807554;29;20051;-82
2022/11/14 13:00:44;;;;;;;17.50;8.70;;;15.70;69.30;;;;;;4777609;29;20064;-82
2022/11/14 13:03:23;;;;;;;11.48;8.18;;;15.60;69.40;;;;;;4807775;29;20351;-81
2022/11/14 13:06:03;;;;;;;13.52;8.93;;;15.70;69.50;;;;;;4807508;29;20359;-82
2022/11/14 13:09:06;;;;;;;14.77;8.82;;;15.60;69.50;;;;;;4777333;29;20046;-83
2022/11/14 13:23:03;;;;;;;12.10;9.48;;;15.50;70.40;;;;;;4826928;29;20054;-83
2022/11/14 13:25:29;;;;;;;11.27;8.23;;;15.50;69.90;;;;;;4809805;29;20183;-82
2022/11/14 13:27:58;;;;;;;14.05;8.82;;;15.50;70.00;;;;;;4810338;29;20045;-81
2022/11/14 13:31:01;;;;;;;10.85;8.27;;;15.50;70.00;;;;;;4810281;29;20053;-78
2022/11/14 13:33:43;;;;;;;14.48;8.57;;;15.40;70.00;;;;;;4829362;29;20042;-80
2022/11/14 13:36:20;;;;;;;18.17;10.40;;;15.40;70.00;;;;;;4843114;29;20041;-82
2022/11/14 13:39:10;;;;;;;20.88;10.30;;;15.40;70.00;;;;;;4843574;29;20114;-83
2022/11/14 13:41:47;;;;;;;20.83;9.75;;;15.40;70.10;;;;;;4844726;29;20062;-80
2022/11/14 13:44:55;;;;;;;23.02;10.10;;;15.40;70.40;;;;;;4828219;29;20083;-83
2022/11/14 13:47:40;;;;;;;17.70;9.15;;;15.40;70.90;;;;;;4827627;29;20486;-81
2022/11/14 13:50:16;;;;;;;;;;;15.30;71.10;;;;;;4828845;29;20466;-83
2022/11/14 13:52:47;;;;;;;16.88;8.65;;;15.30;71.40;;;;;;4843534;29;19932;-80
2022/11/14 13:55:22;;;;;;;24.48;10.88;;;15.40;71.20;;;;;;4834534;29;20054;-76
2022/11/14 13:58:02;;;;;;;16.48;10.25;;;15.40;71.10;;;;;;4830831;29;20050;-81
2022/11/14 14:00:49;;;;;;;22.42;11.88;;;15.30;70.60;;;;;;4843683;29;20041;-82
2022/11/14 14:07:32;;;;;;;32.33;10.63;;;15.30;70.10;;;;;;4809963;29;20054;-81
2022/11/14 14:10:43;;;;;;;21.85;10.50;;;15.30;70.60;;;;;;4808194;29;20130;-81
2022/11/14 14:13:33;;;;;;;;;;;15.30;71.10;;;;;;4826625;29;20070;-81
2022/11/14 14:16:16;;;;;;;23.58;9.43;;;15.30;71.20;;;;;;4824449;29;19925;-82
2022/11/14 14:19:02;;;;;;;22.35;8.75;;;15.30;71.30;;;;;;4839640;29;20485;-80
2022/11/14 14:21:51;;;;;;;20.25;8.15;;;15.30;71.50;;;;;;4825758;29;20066;-81
2022/11/14 14:24:55;;;;;;;19.48;8.57;;;15.20;71.50;;;;;;4824665;29;20076;-82
2022/11/14 14:27:35;;;;;;;27.25;8.40;;;15.20;71.60;;;;;;4839862;29;20115;-79
2022/11/14 14:30:10;;;;;;;22.88;9.45;;;15.20;71.70;;;;;;4840025;29;20116;-80
2022/11/14 14:32:36;;;;;;;18.13;7.50;;;15.20;70.90;;;;;;4794497;29;20050;-79
2022/11/14 14:35:28;;;;;;;9.98;6.97;;;15.00;71.30;;;;;;4795089;29;20119;-81
2022/11/14 14:37:56;;;;;;;17.63;8.05;;;14.90;71.30;;;;;;4792696;29;20356;-83
2022/11/14 14:40:35;;;;;;;12.95;6.70;;;14.70;71.70;;;;;;4839517;29;20558;-79
2022/11/14 14:43:05;;;;;;;20.00;7.70;;;14.70;72.20;;;;;;4816098;29;20060;-79
2022/11/14 14:45:53;;;;;;;13.10;6.78;;;14.60;72.40;;;;;;4832660;29;20119;-79
2022/11/14 14:48:25;;;;;;;12.65;6.60;;;14.60;72.60;;;;;;4812623;29;20130;-80
2022/11/14 14:50:57;;;;;;;14.65;7.03;;;14.60;72.80;;;;;;4827863;29;20054;-79
2022/11/14 14:53:29;;;;;;;14.32;6.55;;;14.60;72.70;;;;;;4834044;29;20049;-77
2022/11/14 14:55:57;;;;;;;9.25;6.55;;;14.50;72.70;;;;;;4828370;29;20046;-80
2022/11/14 14:58:26;;;;;;;13.15;6.47;;;14.50;72.90;;;;;;4827579;29;20042;-74
2022/11/14 15:01:12;;;;;;;16.80;11.52;;;14.50;73.00;;;;;;4828817;29;20428;-75
2022/11/14 15:03:45;;;;;;;17.02;10.10;;;14.50;72.30;;;;;;4812348;29;20050;-80
2022/11/14 15:06:37;;;;;;;16.45;9.38;;;14.50;72.20;;;;;;4812333;29;20089;-84
2022/11/14 15:09:06;;;;;;;12.10;8.90;;;14.50;72.00;;;;;;4828399;29;20084;-80
2022/11/14 15:11:32;;;;;;;16.00;10.85;;;14.50;72.00;;;;;;4842886;29;20078;-80
2022/11/14 15:14:00;;;;;;;16.73;9.90;;;14.50;71.70;;;;;;4827879;29;20046;-81
2022/11/14 15:16:28;;;;;;;20.90;9.70;;;14.60;71.50;;;;;;4842144;29;20715;-78
2022/11/14 15:18:55;;;;;;;15.13;9.05;;;14.60;71.50;;;;;;4812378;29;20150;-79
2022/11/14 15:21:24;;;;;;;17.02;8.57;;;14.70;71.40;;;;;;4828378;29;20134;-81
2022/11/14 15:24:15;;;;;;;28.70;10.00;;;14.80;71.30;;;;;;4827489;29;20459;-80
2022/11/14 15:26:48;;;;;;;15.27;7.00;;;15.00;71.00;;;;;;4843028;29;20050;-79
2022/11/14 15:29:25;;;;;;;14.25;7.43;;;15.10;70.80;;;;;;4828485;29;20370;-74
2022/11/14 15:31:59;;;;;;;17.83;8.07;;;15.40;70.40;;;;;;4812017;29;20130;-75
2022/11/14 15:38:17;;;;;;;18.35;7.70;;;15.60;69.20;;;;;;4823100;29;20050;-79
2022/11/14 15:41:03;;;;;;;15.77;7.82;;;15.60;69.50;;;;;;4815064;29;20049;-76
2022/11/14 15:43:41;;;;;;;28.20;9.25;;;15.70;69.40;;;;;;4845711;29;20046;-75
2022/11/14 15:46:37;;;;;;;23.35;7.72;;;15.70;69.50;;;;;;4815083;29;20089;-76
2022/11/14 15:49:13;;;;;;;17.65;7.07;;;15.80;69.60;;;;;;4824180;29;20393;-79
2022/11/14 15:51:50;;;;;;;18.15;6.70;;;15.80;69.60;;;;;;4845425;29;20395;-74
2022/11/14 15:54:33;;;;;;;18.45;6.50;;;15.80;69.60;;;;;;4828366;29;20050;-75
2022/11/14 15:57:12;;;;;;;15.68;7.18;;;15.80;69.60;;;;;;4845787;29;20041;-75
2022/11/14 15:59:37;;;;;;;16.77;9.40;;;15.90;70.00;;;;;;4845457;29;20065;-77
2022/11/14 16:02:23;;;;;;;21.48;11.20;;;15.90;70.00;;;;;;4820761;29;20054;-80
2022/11/14 16:04:57;;;;;;;21.05;13.15;;;15.80;68.10;;;;;;4827862;29;20354;-77
2022/11/14 16:07:27;;;;;;;30.90;14.70;;;15.90;68.00;;;;;;4796281;29;20039;-79
2022/11/14 16:09:53;;;;;;;26.40;10.48;;;15.90;68.00;;;;;;4841744;29;20118;-75
2022/11/14 16:12:24;;;;;;;28.38;9.70;;;16.00;67.90;;;;;;4841530;29;20050;-78
2022/11/14 16:15:10;;;;;;;25.92;11.02;;;16.00;68.00;;;;;;4796197;29;20115;-79
2022/11/14 16:17:45;;;;;;;23.67;10.32;;;16.20;68.60;;;;;;4811816;29;20046;-78
2022/11/14 16:20:17;;;;;;;24.83;9.45;;;16.30;69.20;;;;;;4827210;29;20050;-75
2022/11/14 16:22:44;;;;;;;29.08;8.65;;;16.30;69.60;;;;;;4827087;29;20134;-77
2022/11/14 16:25:18;;;;;;;23.50;8.48;;;16.30;69.70;;;;;;4828051;29;20050;-77
2022/11/14 16:27:47;;;;;;;23.48;8.57;;;16.40;70.10;;;;;;4829257;29;20057;-78
2022/11/14 16:30:14;;;;;;;17.83;8.32;;;16.40;70.20;;;;;;4845869;29;20068;-78
2022/11/14 16:32:45;;;;;;;19.15;7.65;;;16.40;70.70;;;;;;4845396;29;20068;-78
2022/11/14 16:35:18;;;;;;;12.75;6.65;;;16.40;71.10;;;;;;4845457;29;20374;-79
2022/11/14 16:37:44;;;;;;;17.67;6.57;;;16.40;71.50;;;;;;4845777;29;20045;-79
2022/11/14 16:40:27;;;;;;;15.30;6.72;;;16.40;71.80;;;;;;4829479;29;20050;-79
2022/11/14 16:42:54;;;;;;;13.27;5.90;;;16.40;72.50;;;;;;4845542;29;20050;-77
2022/11/14 16:45:20;;;;;;;13.10;6.22;;;16.30;72.90;;;;;;4845146;29;20054;-78
2022/11/14 16:47:47;;;;;;;14.18;6.43;;;16.30;73.20;;;;;;4828943;29;20054;-81
2022/11/14 16:50:13;;;;;;;14.63;5.65;;;16.30;73.70;;;;;;4836662;29;20054;-80
2022/11/14 16:52:39;;;;;;;19.70;5.68;;;16.20;74.00;;;;;;4827629;29;20115;-81
2022/11/14 16:55:06;;;;;;;18.05;6.07;;;16.20;74.40;;;;;;4827094;29;20137;-78
2022/11/14 16:57:32;;;;;;;13.13;5.90;;;16.20;74.60;;;;;;4827398;29;20450;-82
2022/11/14 16:59:58;;;;;;;24.00;6.30;;;16.20;74.40;;;;;;4811545;29;20053;-74
2022/11/14 17:02:24;;;;;;;17.35;9.30;;;16.20;74.40;;;;;;4826833;29;20065;-76
2022/11/14 17:04:49;;;;;;;13.95;10.27;;;16.00;70.60;;;;;;4826888;29;20089;-76
2022/11/14 17:07:15;;;;;;;19.17;12.02;;;15.90;67.70;;;;;;4827056;29;20054;-78
2022/11/14 17:09:41;;;;;;;19.52;11.57;;;15.80;66.40;;;;;;4826369;29;20506;-78
2022/11/14 17:12:07;;;;;;;15.05;9.02;;;15.70;65.60;;;;;;4827468;29;20133;-76
2022/11/14 17:14:33;;;;;;;13.52;8.38;;;15.60;67.10;;;;;;4827242;29;20098;-75
2022/11/14 17:16:59;;;;;;;19.88;9.15;;;15.40;68.30;;;;;;4838410;29;20069;-76
2022/11/14 17:19:25;;;;;;;21.77;8.73;;;15.30;68.90;;;;;;4844710;29;20048;-77
2022/11/14 17:21:51;;;;;;;17.75;8.45;;;15.20;69.60;;;;;;4828477;29;20389;-77
2022/11/14 17:24:17;;;;;;;20.95;9.52;;;15.10;70.30;;;;;;4844613;29;20057;-77
2022/11/14 17:26:42;;;;;;;19.73;9.20;;;15.00;70.70;;;;;;4844566;29;20045;-77
2022/11/14 17:29:08;;;;;;;13.27;8.45;;;14.90;71.20;;;;;;4828664;29;20132;-76
2022/11/14 17:31:34;;;;;;;11.43;7.45;;;14.90;72.10;;;;;;4844246;29;20076;-78
2022/11/14 17:34:00;;;;;;;13.93;8.07;;;14.90;71.70;;;;;;4828824;29;20481;-75
2022/11/14 17:36:29;;;;;;;17.02;8.50;;;14.80;71.60;;;;;;4829303;29;20045;-78
2022/11/14 17:38:55;;;;;;;13.73;8.20;;;14.80;71.90;;;;;;4844468;29;20050;-79
2022/11/14 17:41:22;;;;;;;20.35;8.65;;;14.80;71.30;;;;;;4844310;29;20064;-76
2022/11/14 17:43:52;;;;;;;13.15;7.65;;;14.70;70.90;;;;;;4844423;29;20397;-78
2022/11/14 17:46:19;;;;;;;16.48;8.52;;;14.70;72.40;;;;;;4825959;29;20050;-77
2022/11/14 17:48:45;;;;;;;15.77;7.53;;;14.70;72.10;;;;;;4810380;29;20226;-78
2022/11/14 17:51:12;;;;;;;14.88;7.22;;;14.70;72.40;;;;;;4826327;29;20050;-78
2022/11/14 17:53:39;;;;;;;9.65;7.18;;;14.70;72.60;;;;;;4826288;29;20469;-77
2022/11/14 17:56:06;;;;;;;12.85;6.82;;;14.60;72.60;;;;;;4840738;29;20123;-76
2022/11/14 17:58:32;;;;;;;8.15;6.57;;;14.60;72.80;;;;;;4826077;29;20133;-78
2022/11/14 18:00:58;;;;;;;9.73;6.60;;;14.60;72.90;;;;;;4827622;29;20419;-77
2022/11/14 18:03:25;;;;;;;10.25;6.53;;;14.60;73.00;;;;;;4844511;29;20042;-77
2022/11/14 18:05:51;;;;;;;11.02;6.90;;;14.60;73.20;;;;;;4844407;29;20352;-76
2022/11/14 18:08:16;;;;;;;11.43;6.75;;;14.60;73.30;;;;;;4844330;29;20129;-77
2022/11/14 18:10:42;;;;;;;14.57;9.35;;;14.60;73.30;;;;;;4844570;29;20049;-75
2022/11/14 18:13:08;;;;;;;14.73;10.88;;;14.70;71.50;;;;;;4844113;29;20129;-77
2022/11/14 18:15:36;;;;;;;13.07;11.32;;;14.80;67.30;;;;;;4831125;29;20042;-71
2022/11/14 18:18:02;;;;;;;14.02;11.65;;;14.70;64.10;;;;;;4839247;29;20050;-75
2022/11/14 18:20:28;;;;;;;17.05;12.60;;;14.60;63.40;;;;;;4825805;29;20065;-76
2022/11/14 18:22:54;;;;;;;14.02;12.52;;;14.50;62.80;;;;;;4828888;29;20051;-73
2022/11/14 18:25:20;;;;;;;14.18;12.68;;;14.40;62.70;;;;;;4830012;29;20050;-75
2022/11/14 18:27:45;;;;;;;13.68;11.85;;;14.30;62.70;;;;;;4839292;29;20054;-76
2022/11/14 18:30:11;;;;;;;12.65;10.55;;;14.10;62.70;;;;;;4829035;29;20051;-82
2022/11/14 18:32:37;;;;;;;12.57;11.27;;;14.00;63.60;;;;;;4829141;29;20052;-83
2022/11/14 18:35:03;;;;;;;13.98;11.27;;;13.90;64.20;;;;;;4813375;29;20056;-79
2022/11/14 18:37:31;;;;;;;16.05;11.90;;;14.00;64.60;;;;;;4829294;29;20042;-75
2022/11/14 18:39:57;;;;;;;14.10;11.02;;;14.10;64.70;;;;;;4829730;29;20370;-74
2022/11/14 18:42:24;;;;;;;11.75;10.55;;;14.10;64.70;;;;;;4842509;29;20058;-74
2022/11/14 18:44:49;;;;;;;11.77;10.52;;;14.20;64.70;;;;;;4846927;29;20119;-73
2022/11/14 18:47:15;;;;;;;13.57;10.55;;;14.30;64.60;;;;;;4828855;29;20461;-76
2022/11/14 18:49:41;;;;;;;14.75;10.57;;;14.30;64.60;;;;;;4829057;29;20054;-75
2022/11/14 18:52:06;;;;;;;12.70;10.05;;;14.40;64.50;;;;;;4829196;29;20358;-75
2022/11/14 18:54:32;;;;;;;12.25;10.40;;;14.50;64.50;;;;;;4828611;29;20054;-76
2022/11/14 18:56:59;;;;;;;12.23;10.65;;;14.50;64.30;;;;;;4813533;29;20370;-74
2022/11/14 18:59:26;;;;;;;12.48;10.70;;;14.50;64.20;;;;;;4847271;29;20449;-73
2022/11/14 19:01:51;;;;;;;13.25;11.20;;;14.60;64.10;;;;;;4847603;29;20086;-77
2022/11/14 19:04:18;;;;;;;12.55;10.45;;;14.60;63.90;;;;;;4847058;29;20085;-75